createdAt,value
2023-03-24T00:01:53.507Z,12.00
2023-03-24T00:06:55.365Z,11.80
2023-03-24T00:11:57.991Z,11.60
2023-03-24T00:16:59.851Z,11.50
2023-03-24T00:22:02.206Z,11.40
2023-03-24T00:27:04.064Z,11.30
2023-03-24T00:32:06.507Z,11.30
2023-03-24T00:37:08.330Z,11.20
2023-03-24T00:42:10.197Z,11.20
2023-03-24T00:47:12.049Z,11.10
2023-03-24T00:52:21.062Z,11.00
2023-03-24T00:57:22.875Z,10.90
2023-03-24T01:02:26.385Z,10.90
2023-03-24T01:07:30.195Z,10.90
2023-03-24T01:12:35.231Z,10.90
2023-03-24T01:17:37.098Z,10.90
2023-03-24T01:22:40.546Z,11.00
2023-03-24T01:27:46.937Z,11.00
2023-03-24T01:32:49.827Z,11.10
2023-03-24T01:37:52.421Z,11.20
2023-03-24T01:42:54.594Z,11.20
2023-03-24T01:47:56.749Z,11.20
2023-03-24T01:52:59.370Z,11.20
2023-03-24T01:58:02.488Z,11.20
2023-03-24T02:03:14.880Z,11.20
2023-03-24T02:08:23.303Z,11.10
2023-03-24T02:13:25.331Z,11.20
2023-03-24T02:18:45.098Z,11.20
2023-03-24T02:24:11.842Z,11.20
2023-03-24T02:29:29.230Z,11.20
2023-03-24T02:34:46.652Z,11.20
2023-03-24T02:40:08.093Z,11.20
2023-03-24T02:45:19.058Z,11.10
2023-03-24T02:50:38.415Z,11.10
2023-03-24T02:55:53.022Z,11.00
2023-03-24T03:01:05.804Z,10.90
2023-03-24T03:06:14.995Z,10.80
2023-03-24T03:11:17.821Z,10.70
2023-03-24T03:16:25.437Z,10.70
2023-03-24T03:21:32.887Z,10.70
2023-03-24T03:26:35.054Z,10.70
2023-03-24T03:32:08.122Z,10.80
2023-03-24T03:37:57.629Z,10.70
2023-03-24T03:42:59.488Z,10.70
2023-03-24T03:48:02.121Z,10.70
2023-03-24T03:53:05.275Z,10.70
2023-03-24T03:58:07.425Z,10.70
2023-03-24T04:03:34.528Z,10.60
2023-03-24T04:08:47.209Z,10.60
2023-03-24T04:13:55.018Z,10.50
2023-03-24T04:19:00.026Z,10.50
2023-03-24T04:24:16.092Z,10.50
2023-03-24T04:29:31.443Z,10.50
2023-03-24T04:34:38.406Z,10.60
2023-03-24T04:39:43.836Z,10.60
2023-03-24T04:44:45.660Z,10.60
2023-03-24T04:49:47.454Z,10.60
2023-03-24T04:54:49.302Z,10.50
2023-03-24T04:59:51.084Z,10.40
2023-03-24T05:04:53.722Z,10.30
2023-03-24T05:09:56.416Z,10.30
2023-03-24T05:14:58.280Z,10.40
2023-03-24T05:20:00.455Z,10.50
2023-03-24T05:25:02.271Z,10.60
2023-03-24T05:30:07.426Z,10.70
2023-03-24T05:35:09.502Z,10.70
2023-03-24T05:40:11.912Z,10.80
2023-03-24T05:45:13.760Z,11.00
2023-03-24T05:50:15.657Z,11.10
2023-03-24T05:55:19.295Z,11.20
2023-03-24T06:00:23.423Z,11.40
2023-03-24T06:05:25.776Z,11.50
2023-03-24T06:10:28.493Z,11.70
2023-03-24T06:15:30.790Z,11.70
2023-03-24T06:20:32.790Z,11.80
2023-03-24T06:25:35.619Z,11.90
2023-03-24T06:30:38.984Z,12.00
2023-03-24T06:35:41.116Z,12.10
2023-03-24T06:40:43.032Z,12.20
2023-03-24T06:45:45.819Z,12.30
2023-03-24T06:50:47.960Z,12.40
2023-03-24T06:55:50.705Z,12.50
2023-03-24T07:00:53.738Z,12.70
2023-03-24T07:05:57.145Z,12.90
2023-03-24T07:11:00.124Z,13.10
2023-03-24T07:16:02.366Z,13.30
2023-03-24T07:21:04.843Z,13.40
2023-03-24T07:26:07.153Z,13.50
2023-03-24T07:31:12.371Z,13.70
2023-03-24T07:36:14.270Z,13.80
2023-03-24T07:41:16.290Z,14.10
2023-03-24T07:46:18.416Z,14.30
2023-03-24T07:51:20.587Z,14.40
2023-03-24T07:56:22.417Z,14.40
2023-03-24T08:01:24.208Z,14.40
2023-03-24T08:06:26.400Z,14.30
2023-03-24T08:11:29.266Z,14.30
2023-03-24T08:16:31.133Z,14.30
2023-03-24T08:21:33.358Z,14.40
2023-03-24T08:26:35.476Z,14.40
2023-03-24T08:31:37.654Z,14.60
2023-03-24T08:36:39.451Z,14.70
2023-03-24T08:41:41.238Z,14.80
2023-03-24T08:46:43.395Z,15.10
2023-03-24T08:51:45.441Z,15.20
2023-03-24T08:56:47.262Z,15.40
2023-03-24T09:01:49.399Z,15.90
2023-03-24T09:06:53.574Z,16.20
2023-03-24T09:11:55.440Z,16.40
2023-03-24T09:16:57.304Z,16.40
2023-03-24T09:21:59.309Z,16.60
2023-03-24T09:27:01.164Z,16.70
2023-03-24T09:32:03.240Z,16.70
2023-03-24T09:37:05.830Z,16.60
2023-03-24T09:42:23.635Z,16.80
2023-03-24T09:48:02.730Z,16.90
2023-03-24T09:53:13.893Z,17.00
2023-03-24T09:58:15.776Z,17.00
2023-03-24T10:03:22.997Z,17.10
2023-03-24T10:08:45.766Z,17.10
2023-03-24T10:14:11.465Z,17.10
2023-03-24T10:19:39.114Z,17.10
2023-03-24T10:25:06.805Z,17.20
2023-03-24T10:30:16.594Z,17.30
2023-03-24T10:35:22.831Z,17.40
2023-03-24T10:40:33.742Z,17.30
2023-03-24T10:45:38.530Z,17.40
2023-03-24T10:50:45.189Z,17.60
2023-03-24T10:55:47.998Z,17.80
2023-03-24T11:00:50.442Z,17.90
2023-03-24T11:05:58.183Z,18.20
2023-03-24T11:11:00.075Z,18.40
2023-03-24T11:16:01.879Z,18.50
2023-03-24T11:21:05.395Z,18.60
2023-03-24T11:26:07.396Z,18.60
2023-03-24T11:31:11.100Z,18.70
2023-03-24T11:36:32.880Z,19.10
2023-03-24T11:41:36.739Z,19.40
2023-03-24T11:46:40.468Z,19.80
2023-03-24T11:51:45.062Z,19.70
2023-03-24T11:56:59.019Z,19.60
2023-03-24T12:02:27.017Z,19.60
2023-03-24T12:07:28.800Z,19.50
2023-03-24T12:12:38.028Z,19.40
2023-03-24T12:18:19.526Z,19.40
2023-03-24T12:23:44.153Z,19.40
2023-03-24T12:29:15.756Z,19.30
2023-03-24T12:34:35.768Z,19.40
2023-03-24T12:39:55.063Z,19.20
2023-03-24T12:45:05.003Z,19.10
2023-03-24T12:50:44.292Z,18.90
2023-03-24T12:55:51.325Z,18.90
2023-03-24T13:00:57.904Z,18.90
2023-03-24T13:06:16.862Z,18.90
2023-03-24T13:11:32.362Z,18.80
2023-03-24T13:16:35.824Z,18.90
2023-03-24T13:21:37.815Z,18.90
2023-03-24T13:26:57.890Z,18.90
2023-03-24T13:32:08.883Z,18.90
2023-03-24T13:37:14.524Z,19.10
2023-03-24T13:42:46.341Z,19.20
2023-03-24T13:48:06.585Z,19.30
2023-03-24T13:53:15.457Z,19.60
2023-03-24T13:58:28.573Z,19.80
2023-03-24T14:03:39.472Z,19.70
2023-03-24T14:08:52.389Z,19.80
2023-03-24T14:13:54.543Z,19.70
2023-03-24T14:19:41.929Z,19.70
2023-03-24T14:24:46.415Z,19.80
2023-03-24T14:29:51.021Z,19.90
2023-03-24T14:34:53.366Z,19.90
2023-03-24T14:39:59.261Z,19.80
2023-03-24T14:45:07.078Z,19.70
2023-03-24T14:50:21.276Z,19.60
2023-03-24T14:55:23.390Z,19.50
2023-03-24T15:00:27.696Z,19.40
2023-03-24T15:05:31.319Z,19.30
2023-03-24T15:10:37.599Z,19.10
2023-03-24T15:15:47.027Z,19.00
2023-03-24T15:20:49.939Z,18.90
2023-03-24T15:25:54.478Z,18.80
2023-03-24T15:31:01.539Z,18.50
2023-03-24T15:36:03.870Z,18.20
2023-03-24T15:41:09.642Z,18.00
2023-03-24T15:46:54.279Z,17.70
2023-03-24T15:53:02.510Z,17.30
2023-03-24T15:58:32.387Z,16.90
2023-03-24T16:03:34.963Z,16.50
2023-03-24T16:08:40.812Z,16.30
2023-03-24T16:13:47.406Z,16.20
2023-03-24T16:18:50.039Z,16.20
2023-03-24T16:23:53.785Z,16.20
2023-03-24T16:29:26.328Z,16.20
2023-03-24T16:34:28.467Z,16.10
2023-03-24T16:39:33.349Z,16.00
2023-03-24T16:44:35.569Z,15.80
2023-03-24T16:49:37.915Z,15.70
2023-03-24T16:54:54.985Z,15.60
2023-03-24T16:59:56.802Z,15.50
2023-03-24T17:04:58.709Z,15.30
2023-03-24T17:10:00.509Z,15.10
2023-03-24T17:15:02.514Z,15.00
2023-03-24T17:20:05.416Z,14.90
2023-03-24T17:25:33.519Z,14.70
2023-03-24T17:30:35.548Z,14.70
2023-03-24T17:35:37.419Z,14.70
2023-03-24T17:40:41.729Z,14.60
2023-03-24T17:45:43.607Z,14.60
2023-03-24T17:50:48.227Z,14.50
2023-03-24T17:55:50.821Z,14.40
2023-03-24T18:00:53.675Z,14.30
2023-03-24T18:05:56.160Z,14.20
2023-03-24T18:11:16.008Z,14.20
2023-03-24T18:16:21.896Z,14.20
2023-03-24T18:21:24.251Z,14.10
2023-03-24T18:26:26.541Z,14.10
2023-03-24T18:31:31.529Z,14.10
2023-03-24T18:36:33.692Z,14.00
2023-03-24T18:41:39.183Z,13.90
2023-03-24T18:46:41.879Z,13.80
2023-03-24T18:51:45.198Z,13.80
2023-03-24T18:56:47.090Z,13.90
2023-03-24T19:01:50.504Z,13.90
2023-03-24T19:06:52.324Z,13.90
2023-03-24T19:11:54.337Z,13.80
2023-03-24T19:16:59.526Z,13.80
2023-03-24T19:22:01.930Z,13.70
2023-03-24T19:27:04.202Z,13.70
2023-03-24T19:32:06.183Z,13.60
2023-03-24T19:37:10.236Z,13.60
2023-03-24T19:42:12.031Z,13.50
2023-03-24T19:47:13.818Z,13.50
2023-03-24T19:52:16.133Z,13.40
2023-03-24T19:57:18.663Z,13.30
2023-03-24T20:02:21.364Z,13.30
2023-03-24T20:07:23.396Z,13.20
2023-03-24T20:12:26.895Z,13.20
2023-03-24T20:17:29.456Z,13.00
2023-03-24T20:22:31.782Z,12.90
2023-03-24T20:27:33.678Z,12.80
2023-03-24T20:32:35.788Z,12.70
2023-03-24T20:37:37.710Z,12.70
2023-03-24T20:42:39.869Z,12.70
2023-03-24T20:47:42.807Z,12.60
2023-03-24T20:52:44.846Z,12.60
2023-03-24T20:57:48.316Z,12.50
2023-03-24T21:02:50.479Z,12.50
2023-03-24T21:07:53.422Z,12.60
2023-03-24T21:12:55.391Z,12.60
2023-03-24T21:17:57.572Z,12.80
2023-03-24T21:23:04.335Z,13.10
2023-03-24T21:28:06.220Z,13.20
2023-03-24T21:33:09.248Z,13.30
2023-03-24T21:38:11.800Z,13.30
2023-03-24T21:43:14.807Z,13.30
2023-03-24T21:48:18.010Z,13.30
2023-03-24T21:53:20.951Z,13.20
2023-03-24T21:58:23.399Z,13.20
2023-03-24T22:03:25.927Z,13.20
2023-03-24T22:08:30.462Z,13.20
2023-03-24T22:13:33.568Z,13.20
2023-03-24T22:18:36.496Z,13.20
2023-03-24T22:23:40.114Z,13.20
2023-03-24T22:28:42.857Z,13.20
2023-03-24T22:33:44.794Z,13.10
2023-03-24T22:38:46.771Z,13.00
2023-03-24T22:43:49.208Z,12.90
2023-03-24T22:48:51.336Z,12.90
2023-03-24T22:53:53.116Z,12.90
2023-03-24T22:58:54.896Z,12.90
2023-03-24T23:03:56.678Z,12.90
2023-03-24T23:09:00.233Z,12.90
2023-03-24T23:14:05.231Z,12.90
2023-03-24T23:19:08.562Z,12.80
2023-03-24T23:24:10.924Z,12.80
2023-03-24T23:29:13.927Z,12.80
2023-03-24T23:34:18.200Z,12.80
2023-03-24T23:39:20.073Z,12.80
2023-03-24T23:44:21.872Z,12.80
2023-03-24T23:49:23.807Z,12.80
2023-03-24T23:54:25.673Z,12.80
2023-03-24T23:59:27.492Z,12.80
